sensor_id;sensor_type;location;lat;lon;timestamp;P1;durP1;ratioP1;P2;durP2;ratioP2
25351;SDS011;13304;48.464;8.712;2023-08-12T00:00:56;11.15;;;4.30;;
25351;SDS011;13304;48.464;8.712;2023-08-12T00:03:22;7.68;;;4.15;;
25351;SDS011;13304;48.464;8.712;2023-08-12T00:05:47;7.22;;;3.95;;
25351;SDS011;13304;48.464;8.712;2023-08-12T00:08:15;9.02;;;4.72;;
25351;SDS011;13304;48.464;8.712;2023-08-12T00:10:41;6.03;;;4.10;;
25351;SDS011;13304;48.464;8.712;2023-08-12T00:13:07;6.15;;;3.70;;
25351;SDS011;13304;48.464;8.712;2023-08-12T00:15:32;5.68;;;3.92;;
25351;SDS011;13304;48.464;8.712;2023-08-12T00:17:58;5.95;;;4.30;;
25351;SDS011;13304;48.464;8.712;2023-08-12T00:20:26;8.52;;;3.97;;
25351;SDS011;13304;48.464;8.712;2023-08-12T00:22:52;11.35;;;4.00;;
25351;SDS011;13304;48.464;8.712;2023-08-12T00:25:17;5.90;;;4.05;;
25351;SDS011;13304;48.464;8.712;2023-08-12T00:27:43;7.25;;;4.47;;
25351;SDS011;13304;48.464;8.712;2023-08-12T00:30:09;6.30;;;4.10;;
25351;SDS011;13304;48.464;8.712;2023-08-12T00:32:35;9.65;;;4.03;;
25351;SDS011;13304;48.464;8.712;2023-08-12T00:35:01;8.07;;;3.80;;
25351;SDS011;13304;48.464;8.712;2023-08-12T00:37:28;9.07;;;4.18;;
25351;SDS011;13304;48.464;8.712;2023-08-12T00:39:53;7.68;;;4.20;;
25351;SDS011;13304;48.464;8.712;2023-08-12T00:42:19;6.68;;;4.03;;
25351;SDS011;13304;48.464;8.712;2023-08-12T00:44:44;6.95;;;4.00;;
25351;SDS011;13304;48.464;8.712;2023-08-12T00:47:10;9.75;;;4.38;;
25351;SDS011;13304;48.464;8.712;2023-08-12T00:49:36;5.80;;;4.00;;
25351;SDS011;13304;48.464;8.712;2023-08-12T00:52:05;5.82;;;3.90;;
25351;SDS011;13304;48.464;8.712;2023-08-12T00:54:33;6.40;;;3.83;;
25351;SDS011;13304;48.464;8.712;2023-08-12T00:56:59;6.38;;;3.63;;
25351;SDS011;13304;48.464;8.712;2023-08-12T00:59:27;6.17;;;4.23;;
25351;SDS011;13304;48.464;8.712;2023-08-12T01:01:54;8.85;;;4.32;;
25351;SDS011;13304;48.464;8.712;2023-08-12T01:04:20;7.05;;;4.32;;
25351;SDS011;13304;48.464;8.712;2023-08-12T01:06:48;5.60;;;3.88;;
25351;SDS011;13304;48.464;8.712;2023-08-12T01:09:13;6.03;;;4.13;;
25351;SDS011;13304;48.464;8.712;2023-08-12T01:11:46;6.78;;;4.10;;
25351;SDS011;13304;48.464;8.712;2023-08-12T01:14:38;7.57;;;3.63;;
25351;SDS011;13304;48.464;8.712;2023-08-12T01:17:22;10.63;;;4.50;;
25351;SDS011;13304;48.464;8.712;2023-08-12T01:19:51;8.20;;;4.15;;
25351;SDS011;13304;48.464;8.712;2023-08-12T01:22:18;6.35;;;4.00;;
25351;SDS011;13304;48.464;8.712;2023-08-12T01:24:50;5.22;;;3.85;;
25351;SDS011;13304;48.464;8.712;2023-08-12T01:27:17;6.95;;;3.50;;
25351;SDS011;13304;48.464;8.712;2023-08-12T01:29:44;7.80;;;3.83;;
25351;SDS011;13304;48.464;8.712;2023-08-12T01:37:43;7.50;;;3.58;;
25351;SDS011;13304;48.464;8.712;2023-08-12T01:40:10;5.95;;;3.80;;
25351;SDS011;13304;48.464;8.712;2023-08-12T01:42:39;4.50;;;3.77;;
25351;SDS011;13304;48.464;8.712;2023-08-12T01:45:06;8.43;;;3.47;;
25351;SDS011;13304;48.464;8.712;2023-08-12T01:47:32;4.85;;;3.75;;
25351;SDS011;13304;48.464;8.712;2023-08-12T01:50:00;8.27;;;3.95;;
25351;SDS011;13304;48.464;8.712;2023-08-12T01:52:25;8.27;;;4.00;;
25351;SDS011;13304;48.464;8.712;2023-08-12T01:54:54;7.07;;;4.10;;
25351;SDS011;13304;48.464;8.712;2023-08-12T01:57:20;5.57;;;3.80;;
25351;SDS011;13304;48.464;8.712;2023-08-12T01:59:46;6.03;;;3.53;;
25351;SDS011;13304;48.464;8.712;2023-08-12T02:02:11;5.30;;;3.75;;
25351;SDS011;13304;48.464;8.712;2023-08-12T02:04:38;5.35;;;3.90;;
25351;SDS011;13304;48.464;8.712;2023-08-12T02:07:08;8.32;;;3.72;;
25351;SDS011;13304;48.464;8.712;2023-08-12T02:09:34;5.22;;;3.97;;
25351;SDS011;13304;48.464;8.712;2023-08-12T02:11:59;5.82;;;4.10;;
25351;SDS011;13304;48.464;8.712;2023-08-12T02:14:27;6.82;;;4.13;;
25351;SDS011;13304;48.464;8.712;2023-08-12T02:16:53;6.05;;;4.00;;
25351;SDS011;13304;48.464;8.712;2023-08-12T02:19:19;5.82;;;3.70;;
25351;SDS011;13304;48.464;8.712;2023-08-12T02:21:47;9.98;;;4.25;;
25351;SDS011;13304;48.464;8.712;2023-08-12T02:24:13;5.78;;;3.95;;
25351;SDS011;13304;48.464;8.712;2023-08-12T02:26:41;4.78;;;4.05;;
25351;SDS011;13304;48.464;8.712;2023-08-12T02:29:06;5.55;;;3.70;;
25351;SDS011;13304;48.464;8.712;2023-08-12T02:31:32;5.20;;;4.05;;
25351;SDS011;13304;48.464;8.712;2023-08-12T02:34:00;4.28;;;3.88;;
25351;SDS011;13304;48.464;8.712;2023-08-12T02:36:28;7.95;;;3.75;;
25351;SDS011;13304;48.464;8.712;2023-08-12T02:38:54;6.45;;;3.70;;
25351;SDS011;13304;48.464;8.712;2023-08-12T02:41:20;5.05;;;3.72;;
25351;SDS011;13304;48.464;8.712;2023-08-12T02:43:46;5.15;;;3.55;;
25351;SDS011;13304;48.464;8.712;2023-08-12T02:46:12;6.32;;;4.07;;
25351;SDS011;13304;48.464;8.712;2023-08-12T02:48:41;5.47;;;3.77;;
25351;SDS011;13304;48.464;8.712;2023-08-12T02:51:10;5.45;;;3.80;;
25351;SDS011;13304;48.464;8.712;2023-08-12T02:53:35;6.03;;;3.83;;
25351;SDS011;13304;48.464;8.712;2023-08-12T02:56:06;7.68;;;4.05;;
25351;SDS011;13304;48.464;8.712;2023-08-12T02:58:31;8.63;;;3.97;;
25351;SDS011;13304;48.464;8.712;2023-08-12T03:00:57;5.82;;;3.90;;
25351;SDS011;13304;48.464;8.712;2023-08-12T03:03:23;6.65;;;3.92;;
25351;SDS011;13304;48.464;8.712;2023-08-12T03:05:48;5.88;;;4.28;;
25351;SDS011;13304;48.464;8.712;2023-08-12T03:08:17;5.40;;;3.97;;
25351;SDS011;13304;48.464;8.712;2023-08-12T03:10:44;5.18;;;4.22;;
25351;SDS011;13304;48.464;8.712;2023-08-12T03:15:40;4.88;;;3.78;;
25351;SDS011;13304;48.464;8.712;2023-08-12T03:18:10;4.53;;;4.07;;
25351;SDS011;13304;48.464;8.712;2023-08-12T03:20:38;4.88;;;4.13;;
25351;SDS011;13304;48.464;8.712;2023-08-12T03:23:03;5.53;;;4.43;;
25351;SDS011;13304;48.464;8.712;2023-08-12T03:25:29;6.63;;;3.90;;
25351;SDS011;13304;48.464;8.712;2023-08-12T03:27:55;5.50;;;4.22;;
25351;SDS011;13304;48.464;8.712;2023-08-12T03:30:20;7.93;;;4.35;;
25351;SDS011;13304;48.464;8.712;2023-08-12T03:32:46;6.85;;;4.15;;
25351;SDS011;13304;48.464;8.712;2023-08-12T03:35:12;6.57;;;4.00;;
25351;SDS011;13304;48.464;8.712;2023-08-12T03:37:37;5.45;;;3.63;;
25351;SDS011;13304;48.464;8.712;2023-08-12T03:40:03;5.63;;;3.67;;
25351;SDS011;13304;48.464;8.712;2023-08-12T03:42:32;5.47;;;3.88;;
25351;SDS011;13304;48.464;8.712;2023-08-12T03:45:00;10.68;;;4.03;;
25351;SDS011;13304;48.464;8.712;2023-08-12T03:47:25;7.43;;;4.20;;
25351;SDS011;13304;48.464;8.712;2023-08-12T03:49:51;7.70;;;4.03;;
25351;SDS011;13304;48.464;8.712;2023-08-12T03:52:17;7.03;;;3.97;;
25351;SDS011;13304;48.464;8.712;2023-08-12T03:54:45;4.63;;;3.60;;
25351;SDS011;13304;48.464;8.712;2023-08-12T03:57:11;6.43;;;4.15;;
25351;SDS011;13304;48.464;8.712;2023-08-12T03:59:39;4.97;;;3.83;;
25351;SDS011;13304;48.464;8.712;2023-08-12T04:02:05;6.88;;;3.78;;
25351;SDS011;13304;48.464;8.712;2023-08-12T04:04:31;8.30;;;3.95;;
25351;SDS011;13304;48.464;8.712;2023-08-12T04:06:59;8.65;;;4.07;;
25351;SDS011;13304;48.464;8.712;2023-08-12T04:09:25;4.27;;;3.57;;
25351;SDS011;13304;48.464;8.712;2023-08-12T04:11:51;6.28;;;3.85;;
25351;SDS011;13304;48.464;8.712;2023-08-12T04:14:16;7.97;;;3.72;;
25351;SDS011;13304;48.464;8.712;2023-08-12T04:16:44;9.10;;;4.25;;
25351;SDS011;13304;48.464;8.712;2023-08-12T04:19:10;5.15;;;3.83;;
25351;SDS011;13304;48.464;8.712;2023-08-12T04:21:36;5.53;;;3.70;;
25351;SDS011;13304;48.464;8.712;2023-08-12T04:24:04;4.43;;;3.67;;
25351;SDS011;13304;48.464;8.712;2023-08-12T04:26:30;4.80;;;3.77;;
25351;SDS011;13304;48.464;8.712;2023-08-12T04:28:55;6.63;;;4.32;;
25351;SDS011;13304;48.464;8.712;2023-08-12T04:31:23;6.57;;;3.95;;
25351;SDS011;13304;48.464;8.712;2023-08-12T04:33:51;6.72;;;3.80;;
25351;SDS011;13304;48.464;8.712;2023-08-12T04:36:20;5.13;;;3.85;;
25351;SDS011;13304;48.464;8.712;2023-08-12T04:38:45;6.75;;;4.22;;
25351;SDS011;13304;48.464;8.712;2023-08-12T04:41:12;6.88;;;3.97;;
25351;SDS011;13304;48.464;8.712;2023-08-12T04:43:38;8.48;;;4.22;;
25351;SDS011;13304;48.464;8.712;2023-08-12T04:46:04;4.85;;;4.20;;
25351;SDS011;13304;48.464;8.712;2023-08-12T04:48:31;9.18;;;4.28;;
25351;SDS011;13304;48.464;8.712;2023-08-12T04:50:57;5.45;;;4.07;;
25351;SDS011;13304;48.464;8.712;2023-08-12T04:53:26;5.40;;;4.20;;
25351;SDS011;13304;48.464;8.712;2023-08-12T04:55:54;6.65;;;3.80;;
25351;SDS011;13304;48.464;8.712;2023-08-12T04:58:21;6.05;;;3.90;;
25351;SDS011;13304;48.464;8.712;2023-08-12T05:00:46;6.90;;;3.78;;
25351;SDS011;13304;48.464;8.712;2023-08-12T05:03:15;6.95;;;4.13;;
25351;SDS011;13304;48.464;8.712;2023-08-12T05:05:41;7.63;;;4.03;;
25351;SDS011;13304;48.464;8.712;2023-08-12T05:08:15;12.05;;;4.57;;
25351;SDS011;13304;48.464;8.712;2023-08-12T05:10:41;6.10;;;4.13;;
25351;SDS011;13304;48.464;8.712;2023-08-12T05:13:11;5.88;;;4.28;;
25351;SDS011;13304;48.464;8.712;2023-08-12T05:15:37;5.40;;;3.75;;
25351;SDS011;13304;48.464;8.712;2023-08-12T05:18:03;4.53;;;3.65;;
25351;SDS011;13304;48.464;8.712;2023-08-12T05:20:29;6.80;;;3.90;;
25351;SDS011;13304;48.464;8.712;2023-08-12T05:22:54;9.30;;;4.43;;
25351;SDS011;13304;48.464;8.712;2023-08-12T05:25:20;4.95;;;4.20;;
25351;SDS011;13304;48.464;8.712;2023-08-12T05:27:46;6.78;;;4.05;;
25351;SDS011;13304;48.464;8.712;2023-08-12T05:30:12;7.78;;;4.20;;
25351;SDS011;13304;48.464;8.712;2023-08-12T05:32:38;8.13;;;4.00;;
25351;SDS011;13304;48.464;8.712;2023-08-12T05:35:03;6.72;;;4.15;;
25351;SDS011;13304;48.464;8.712;2023-08-12T05:37:32;6.25;;;3.97;;
25351;SDS011;13304;48.464;8.712;2023-08-12T05:40:00;5.90;;;3.80;;
25351;SDS011;13304;48.464;8.712;2023-08-12T05:42:27;11.70;;;3.70;;
25351;SDS011;13304;48.464;8.712;2023-08-12T05:44:53;7.50;;;4.18;;
25351;SDS011;13304;48.464;8.712;2023-08-12T05:47:18;5.85;;;4.30;;
25351;SDS011;13304;48.464;8.712;2023-08-12T05:49:44;5.95;;;3.78;;
25351;SDS011;13304;48.464;8.712;2023-08-12T05:52:12;7.70;;;3.72;;
25351;SDS011;13304;48.464;8.712;2023-08-12T05:54:38;7.53;;;4.30;;
25351;SDS011;13304;48.464;8.712;2023-08-12T05:57:06;15.43;;;4.05;;
25351;SDS011;13304;48.464;8.712;2023-08-12T05:59:31;14.40;;;4.25;;
25351;SDS011;13304;48.464;8.712;2023-08-12T06:01:57;9.82;;;4.30;;
25351;SDS011;13304;48.464;8.712;2023-08-12T06:04:23;12.77;;;4.28;;
25351;SDS011;13304;48.464;8.712;2023-08-12T06:06:49;5.70;;;3.92;;
25351;SDS011;13304;48.464;8.712;2023-08-12T06:09:15;9.43;;;4.00;;
25351;SDS011;13304;48.464;8.712;2023-08-12T06:11:41;8.13;;;4.20;;
25351;SDS011;13304;48.464;8.712;2023-08-12T06:14:07;11.52;;;4.65;;
25351;SDS011;13304;48.464;8.712;2023-08-12T06:16:32;19.40;;;4.70;;
25351;SDS011;13304;48.464;8.712;2023-08-12T06:19:00;12.75;;;3.72;;
25351;SDS011;13304;48.464;8.712;2023-08-12T06:21:26;8.30;;;4.30;;
25351;SDS011;13304;48.464;8.712;2023-08-12T06:23:54;7.47;;;4.25;;
25351;SDS011;13304;48.464;8.712;2023-08-12T06:26:20;7.80;;;3.97;;
25351;SDS011;13304;48.464;8.712;2023-08-12T06:28:48;4.45;;;3.67;;
25351;SDS011;13304;48.464;8.712;2023-08-12T06:31:16;4.75;;;3.88;;
25351;SDS011;13304;48.464;8.712;2023-08-12T06:33:42;9.43;;;3.92;;
25351;SDS011;13304;48.464;8.712;2023-08-12T06:36:08;9.30;;;4.10;;
25351;SDS011;13304;48.464;8.712;2023-08-12T06:38:33;10.18;;;3.80;;
25351;SDS011;13304;48.464;8.712;2023-08-12T06:41:01;5.55;;;4.35;;
25351;SDS011;13304;48.464;8.712;2023-08-12T06:43:29;6.50;;;4.00;;
25351;SDS011;13304;48.464;8.712;2023-08-12T06:45:55;4.93;;;3.88;;
25351;SDS011;13304;48.464;8.712;2023-08-12T06:48:21;6.95;;;4.60;;
25351;SDS011;13304;48.464;8.712;2023-08-12T06:50:52;7.63;;;4.22;;
25351;SDS011;13304;48.464;8.712;2023-08-12T06:53:20;6.18;;;4.28;;
25351;SDS011;13304;48.464;8.712;2023-08-12T06:55:46;5.28;;;4.03;;
25351;SDS011;13304;48.464;8.712;2023-08-12T06:58:13;5.20;;;4.07;;
25351;SDS011;13304;48.464;8.712;2023-08-12T07:00:40;16.92;;;3.97;;
25351;SDS011;13304;48.464;8.712;2023-08-12T07:03:06;18.98;;;4.13;;
25351;SDS011;13304;48.464;8.712;2023-08-12T07:05:34;6.40;;;3.72;;
25351;SDS011;13304;48.464;8.712;2023-08-12T07:08:00;5.45;;;3.60;;
25351;SDS011;13304;48.464;8.712;2023-08-12T07:10:28;5.72;;;3.65;;
25351;SDS011;13304;48.464;8.712;2023-08-12T07:12:56;8.02;;;3.38;;
25351;SDS011;13304;48.464;8.712;2023-08-12T07:15:22;5.22;;;3.58;;
25351;SDS011;13304;48.464;8.712;2023-08-12T07:17:48;4.20;;;3.00;;
25351;SDS011;13304;48.464;8.712;2023-08-12T07:20:13;6.50;;;3.55;;
25351;SDS011;13304;48.464;8.712;2023-08-12T07:22:39;5.68;;;3.42;;
25351;SDS011;13304;48.464;8.712;2023-08-12T07:25:05;10.68;;;3.60;;
25351;SDS011;13304;48.464;8.712;2023-08-12T07:27:31;4.25;;;3.08;;
25351;SDS011;13304;48.464;8.712;2023-08-12T07:29:56;5.20;;;3.50;;
25351;SDS011;13304;48.464;8.712;2023-08-12T07:32:22;5.45;;;3.58;;
25351;SDS011;13304;48.464;8.712;2023-08-12T07:34:48;5.25;;;3.53;;
25351;SDS011;13304;48.464;8.712;2023-08-12T07:37:14;4.22;;;3.35;;
25351;SDS011;13304;48.464;8.712;2023-08-12T07:39:41;4.32;;;3.15;;
25351;SDS011;13304;48.464;8.712;2023-08-12T07:42:07;4.22;;;3.28;;
25351;SDS011;13304;48.464;8.712;2023-08-12T07:44:33;4.93;;;3.30;;
25351;SDS011;13304;48.464;8.712;2023-08-12T07:46:58;8.38;;;3.55;;
25351;SDS011;13304;48.464;8.712;2023-08-12T07:49:24;4.40;;;3.58;;
25351;SDS011;13304;48.464;8.712;2023-08-12T07:51:50;6.22;;;3.55;;
25351;SDS011;13304;48.464;8.712;2023-08-12T07:54:18;4.78;;;3.75;;
25351;SDS011;13304;48.464;8.712;2023-08-12T07:56:43;6.22;;;3.30;;
25351;SDS011;13304;48.464;8.712;2023-08-12T07:59:09;9.82;;;3.50;;
25351;SDS011;13304;48.464;8.712;2023-08-12T08:01:35;5.07;;;3.45;;
25351;SDS011;13304;48.464;8.712;2023-08-12T08:04:01;7.75;;;3.97;;
25351;SDS011;13304;48.464;8.712;2023-08-12T08:06:26;7.47;;;3.33;;
25351;SDS011;13304;48.464;8.712;2023-08-12T08:08:56;13.82;;;3.95;;
25351;SDS011;13304;48.464;8.712;2023-08-12T08:11:23;6.10;;;3.50;;
25351;SDS011;13304;48.464;8.712;2023-08-12T08:13:51;4.97;;;3.60;;
25351;SDS011;13304;48.464;8.712;2023-08-12T08:16:17;6.20;;;3.30;;
25351;SDS011;13304;48.464;8.712;2023-08-12T08:18:45;5.68;;;3.10;;
25351;SDS011;13304;48.464;8.712;2023-08-12T08:21:11;4.32;;;2.85;;
25351;SDS011;13304;48.464;8.712;2023-08-12T08:23:36;8.02;;;3.10;;
25351;SDS011;13304;48.464;8.712;2023-08-12T08:26:02;5.18;;;3.35;;
25351;SDS011;13304;48.464;8.712;2023-08-12T08:28:30;3.50;;;3.00;;
25351;SDS011;13304;48.464;8.712;2023-08-12T08:31:01;4.32;;;3.00;;
25351;SDS011;13304;48.464;8.712;2023-08-12T08:33:27;6.90;;;3.70;;
25351;SDS011;13304;48.464;8.712;2023-08-12T08:35:55;5.65;;;3.90;;
25351;SDS011;13304;48.464;8.712;2023-08-12T08:38:23;4.07;;;3.47;;
25351;SDS011;13304;48.464;8.712;2023-08-12T08:40:51;4.22;;;3.30;;
25351;SDS011;13304;48.464;8.712;2023-08-12T08:43:21;5.05;;;3.15;;
25351;SDS011;13304;48.464;8.712;2023-08-12T08:45:51;3.25;;;2.80;;
25351;SDS011;13304;48.464;8.712;2023-08-12T08:48:20;4.03;;;3.20;;
25351;SDS011;13304;48.464;8.712;2023-08-12T08:50:50;7.15;;;3.50;;
25351;SDS011;13304;48.464;8.712;2023-08-12T08:53:18;6.13;;;2.78;;
25351;SDS011;13304;48.464;8.712;2023-08-12T08:55:45;3.90;;;3.13;;
25351;SDS011;13304;48.464;8.712;2023-08-12T08:58:11;5.22;;;3.67;;
25351;SDS011;13304;48.464;8.712;2023-08-12T09:00:39;5.50;;;3.05;;
25351;SDS011;13304;48.464;8.712;2023-08-12T09:03:07;5.00;;;3.17;;
25351;SDS011;13304;48.464;8.712;2023-08-12T09:05:37;4.38;;;3.53;;
25351;SDS011;13304;48.464;8.712;2023-08-12T09:08:07;7.32;;;3.38;;
25351;SDS011;13304;48.464;8.712;2023-08-12T09:10:36;6.18;;;2.88;;
25351;SDS011;13304;48.464;8.712;2023-08-12T09:13:04;5.95;;;3.22;;
25351;SDS011;13304;48.464;8.712;2023-08-12T09:15:31;5.00;;;3.33;;
25351;SDS011;13304;48.464;8.712;2023-08-12T09:17:57;4.28;;;2.90;;
25351;SDS011;13304;48.464;8.712;2023-08-12T09:20:22;4.03;;;3.05;;
25351;SDS011;13304;48.464;8.712;2023-08-12T09:22:55;5.80;;;3.85;;
25351;SDS011;13304;48.464;8.712;2023-08-12T09:25:28;7.43;;;3.42;;
25351;SDS011;13304;48.464;8.712;2023-08-12T09:27:59;6.45;;;3.30;;
25351;SDS011;13304;48.464;8.712;2023-08-12T09:30:30;5.90;;;3.17;;
25351;SDS011;13304;48.464;8.712;2023-08-12T09:32:59;7.03;;;3.40;;
25351;SDS011;13304;48.464;8.712;2023-08-12T09:35:35;3.75;;;2.97;;
25351;SDS011;13304;48.464;8.712;2023-08-12T09:38:11;6.38;;;3.10;;
25351;SDS011;13304;48.464;8.712;2023-08-12T09:40:38;5.40;;;3.28;;
25351;SDS011;13304;48.464;8.712;2023-08-12T09:43:06;5.75;;;3.65;;
25351;SDS011;13304;48.464;8.712;2023-08-12T09:45:35;3.90;;;3.40;;
25351;SDS011;13304;48.464;8.712;2023-08-12T09:48:01;5.55;;;3.28;;
25351;SDS011;13304;48.464;8.712;2023-08-12T09:50:29;7.72;;;3.42;;
25351;SDS011;13304;48.464;8.712;2023-08-12T09:52:55;8.77;;;3.67;;
25351;SDS011;13304;48.464;8.712;2023-08-12T09:55:24;6.10;;;3.53;;
25351;SDS011;13304;48.464;8.712;2023-08-12T09:57:51;5.28;;;3.67;;
25351;SDS011;13304;48.464;8.712;2023-08-12T10:00:18;5.70;;;3.85;;
25351;SDS011;13304;48.464;8.712;2023-08-12T10:02:48;4.07;;;3.20;;
25351;SDS011;13304;48.464;8.712;2023-08-12T10:05:27;6.43;;;3.55;;
25351;SDS011;13304;48.464;8.712;2023-08-12T10:07:54;5.63;;;2.90;;
25351;SDS011;13304;48.464;8.712;2023-08-12T10:10:22;6.65;;;3.58;;
25351;SDS011;13304;48.464;8.712;2023-08-12T10:12:48;7.70;;;3.50;;
25351;SDS011;13304;48.464;8.712;2023-08-12T10:15:14;7.50;;;3.42;;
25351;SDS011;13304;48.464;8.712;2023-08-12T10:17:40;8.20;;;3.15;;
25351;SDS011;13304;48.464;8.712;2023-08-12T10:20:20;8.43;;;3.58;;
25351;SDS011;13304;48.464;8.712;2023-08-12T10:22:53;3.63;;;3.08;;
25351;SDS011;13304;48.464;8.712;2023-08-12T10:25:20;5.75;;;3.42;;
25351;SDS011;13304;48.464;8.712;2023-08-12T10:27:50;4.50;;;3.22;;
25351;SDS011;13304;48.464;8.712;2023-08-12T10:30:16;4.78;;;2.85;;
25351;SDS011;13304;48.464;8.712;2023-08-12T10:32:42;6.60;;;2.70;;
25351;SDS011;13304;48.464;8.712;2023-08-12T10:35:11;6.50;;;2.85;;
25351;SDS011;13304;48.464;8.712;2023-08-12T10:37:37;6.57;;;2.50;;
25351;SDS011;13304;48.464;8.712;2023-08-12T10:40:05;5.25;;;3.20;;
25351;SDS011;13304;48.464;8.712;2023-08-12T10:42:45;4.03;;;2.97;;
25351;SDS011;13304;48.464;8.712;2023-08-12T10:45:17;6.93;;;3.53;;
25351;SDS011;13304;48.464;8.712;2023-08-12T10:48:29;4.35;;;2.83;;
25351;SDS011;13304;48.464;8.712;2023-08-12T10:50:34;5.72;;;3.13;;
25351;SDS011;13304;48.464;8.712;2023-08-12T10:53:01;4.68;;;2.70;;
25351;SDS011;13304;48.464;8.712;2023-08-12T10:55:54;5.57;;;2.85;;
25351;SDS011;13304;48.464;8.712;2023-08-12T10:58:34;4.90;;;2.92;;
25351;SDS011;13304;48.464;8.712;2023-08-12T11:01:08;5.50;;;2.80;;
25351;SDS011;13304;48.464;8.712;2023-08-12T11:03:44;5.53;;;2.75;;
25351;SDS011;13304;48.464;8.712;2023-08-12T11:06:13;7.53;;;2.75;;
25351;SDS011;13304;48.464;8.712;2023-08-12T11:08:54;6.22;;;2.83;;
25351;SDS011;13304;48.464;8.712;2023-08-12T11:11:24;5.03;;;2.65;;
25351;SDS011;13304;48.464;8.712;2023-08-12T11:13:52;5.90;;;2.90;;
25351;SDS011;13304;48.464;8.712;2023-08-12T11:16:37;4.00;;;2.33;;
25351;SDS011;13304;48.464;8.712;2023-08-12T11:19:07;4.90;;;2.55;;
25351;SDS011;13304;48.464;8.712;2023-08-12T11:21:35;5.80;;;2.40;;
25351;SDS011;13304;48.464;8.712;2023-08-12T11:24:02;4.13;;;2.42;;
25351;SDS011;13304;48.464;8.712;2023-08-12T11:26:28;4.32;;;2.40;;
25351;SDS011;13304;48.464;8.712;2023-08-12T11:28:53;4.15;;;2.10;;
25351;SDS011;13304;48.464;8.712;2023-08-12T11:31:19;7.05;;;2.65;;
25351;SDS011;13304;48.464;8.712;2023-08-12T11:33:47;5.80;;;2.35;;
25351;SDS011;13304;48.464;8.712;2023-08-12T11:36:13;6.80;;;2.63;;
25351;SDS011;13304;48.464;8.712;2023-08-12T11:38:42;4.30;;;2.33;;
25351;SDS011;13304;48.464;8.712;2023-08-12T11:41:09;4.80;;;2.53;;
25351;SDS011;13304;48.464;8.712;2023-08-12T11:43:34;4.50;;;2.78;;
25351;SDS011;13304;48.464;8.712;2023-08-12T11:46:00;8.07;;;2.80;;
25351;SDS011;13304;48.464;8.712;2023-08-12T11:48:29;5.97;;;2.97;;
25351;SDS011;13304;48.464;8.712;2023-08-12T11:50:59;5.55;;;2.70;;
25351;SDS011;13304;48.464;8.712;2023-08-12T11:53:25;8.48;;;2.42;;
25351;SDS011;13304;48.464;8.712;2023-08-12T11:55:52;5.18;;;2.55;;
25351;SDS011;13304;48.464;8.712;2023-08-12T11:58:18;6.22;;;2.65;;
25351;SDS011;13304;48.464;8.712;2023-08-12T12:00:48;10.73;;;2.83;;
25351;SDS011;13304;48.464;8.712;2023-08-12T12:03:19;4.95;;;2.60;;
25351;SDS011;13304;48.464;8.712;2023-08-12T12:05:47;4.32;;;2.70;;
25351;SDS011;13304;48.464;8.712;2023-08-12T12:08:13;5.82;;;2.70;;
25351;SDS011;13304;48.464;8.712;2023-08-12T12:10:39;5.22;;;2.85;;
25351;SDS011;13304;48.464;8.712;2023-08-12T12:13:06;21.48;;;6.15;;
25351;SDS011;13304;48.464;8.712;2023-08-12T12:15:45;9.65;;;3.47;;
25351;SDS011;13304;48.464;8.712;2023-08-12T12:18:13;12.23;;;3.83;;
25351;SDS011;13304;48.464;8.712;2023-08-12T12:20:42;6.45;;;3.03;;
25351;SDS011;13304;48.464;8.712;2023-08-12T12:23:25;7.82;;;3.53;;
25351;SDS011;13304;48.464;8.712;2023-08-12T12:26:00;10.70;;;3.50;;
25351;SDS011;13304;48.464;8.712;2023-08-12T12:28:27;6.40;;;3.00;;
25351;SDS011;13304;48.464;8.712;2023-08-12T12:30:53;9.15;;;3.63;;
25351;SDS011;13304;48.464;8.712;2023-08-12T12:33:19;7.97;;;3.63;;
25351;SDS011;13304;48.464;8.712;2023-08-12T12:35:44;10.45;;;3.67;;
25351;SDS011;13304;48.464;8.712;2023-08-12T12:38:12;8.77;;;3.75;;
25351;SDS011;13304;48.464;8.712;2023-08-12T12:40:38;6.25;;;3.22;;
25351;SDS011;13304;48.464;8.712;2023-08-12T12:43:04;6.03;;;3.20;;
25351;SDS011;13304;48.464;8.712;2023-08-12T12:45:30;9.63;;;3.45;;
25351;SDS011;13304;48.464;8.712;2023-08-12T12:47:55;7.20;;;3.58;;
25351;SDS011;13304;48.464;8.712;2023-08-12T12:50:23;5.88;;;3.10;;
25351;SDS011;13304;48.464;8.712;2023-08-12T12:52:50;6.13;;;3.22;;
25351;SDS011;13304;48.464;8.712;2023-08-12T12:55:18;7.32;;;3.40;;
25351;SDS011;13304;48.464;8.712;2023-08-12T12:57:46;6.32;;;3.08;;
25351;SDS011;13304;48.464;8.712;2023-08-12T13:00:12;5.95;;;3.05;;
25351;SDS011;13304;48.464;8.712;2023-08-12T13:02:41;4.57;;;2.60;;
25351;SDS011;13304;48.464;8.712;2023-08-12T13:05:09;7.60;;;2.92;;
25351;SDS011;13304;48.464;8.712;2023-08-12T13:07:35;8.18;;;2.85;;
25351;SDS011;13304;48.464;8.712;2023-08-12T13:10:03;7.20;;;2.83;;
25351;SDS011;13304;48.464;8.712;2023-08-12T13:12:29;7.32;;;2.95;;
25351;SDS011;13304;48.464;8.712;2023-08-12T13:14:57;5.32;;;2.42;;
25351;SDS011;13304;48.464;8.712;2023-08-12T13:17:24;8.33;;;2.63;;
25351;SDS011;13304;48.464;8.712;2023-08-12T13:19:52;3.92;;;2.40;;
25351;SDS011;13304;48.464;8.712;2023-08-12T13:22:20;5.53;;;2.40;;
25351;SDS011;13304;48.464;8.712;2023-08-12T13:24:46;12.40;;;2.55;;
25351;SDS011;13304;48.464;8.712;2023-08-12T13:27:12;9.02;;;2.60;;
25351;SDS011;13304;48.464;8.712;2023-08-12T13:29:38;6.35;;;2.60;;
25351;SDS011;13304;48.464;8.712;2023-08-12T13:32:06;5.43;;;2.40;;
25351;SDS011;13304;48.464;8.712;2023-08-12T13:34:32;10.43;;;2.40;;
25351;SDS011;13304;48.464;8.712;2023-08-12T13:36:59;4.72;;;2.20;;
25351;SDS011;13304;48.464;8.712;2023-08-12T13:39:24;6.88;;;2.20;;
25351;SDS011;13304;48.464;8.712;2023-08-12T13:41:53;4.30;;;2.40;;
25351;SDS011;13304;48.464;8.712;2023-08-12T13:44:21;5.43;;;2.60;;
25351;SDS011;13304;48.464;8.712;2023-08-12T13:46:50;7.35;;;2.70;;
25351;SDS011;13304;48.464;8.712;2023-08-12T13:49:17;6.07;;;2.63;;
25351;SDS011;13304;48.464;8.712;2023-08-12T13:51:46;6.83;;;2.57;;
25351;SDS011;13304;48.464;8.712;2023-08-12T13:54:14;5.25;;;2.60;;
25351;SDS011;13304;48.464;8.712;2023-08-12T13:56:42;6.50;;;2.63;;
25351;SDS011;13304;48.464;8.712;2023-08-12T13:59:08;5.35;;;2.47;;
25351;SDS011;13304;48.464;8.712;2023-08-12T14:01:33;3.25;;;2.58;;
25351;SDS011;13304;48.464;8.712;2023-08-12T14:03:59;4.93;;;2.17;;
25351;SDS011;13304;48.464;8.712;2023-08-12T14:06:27;7.40;;;2.00;;
25351;SDS011;13304;48.464;8.712;2023-08-12T14:08:53;3.20;;;1.97;;
25351;SDS011;13304;48.464;8.712;2023-08-12T14:11:18;6.82;;;2.80;;
25351;SDS011;13304;48.464;8.712;2023-08-12T14:13:46;7.72;;;2.88;;
25351;SDS011;13304;48.464;8.712;2023-08-12T14:16:12;4.65;;;2.47;;
25351;SDS011;13304;48.464;8.712;2023-08-12T14:18:40;5.90;;;3.00;;
25351;SDS011;13304;48.464;8.712;2023-08-12T14:21:08;7.50;;;2.78;;
25351;SDS011;13304;48.464;8.712;2023-08-12T14:23:34;4.43;;;2.40;;
25351;SDS011;13304;48.464;8.712;2023-08-12T14:26:02;4.70;;;2.60;;
25351;SDS011;13304;48.464;8.712;2023-08-12T14:28:28;6.95;;;3.20;;
25351;SDS011;13304;48.464;8.712;2023-08-12T14:30:53;7.43;;;3.17;;
25351;SDS011;13304;48.464;8.712;2023-08-12T14:33:19;4.93;;;2.97;;
25351;SDS011;13304;48.464;8.712;2023-08-12T14:35:50;3.92;;;2.85;;
25351;SDS011;13304;48.464;8.712;2023-08-12T14:38:17;5.88;;;3.10;;
25351;SDS011;13304;48.464;8.712;2023-08-12T14:40:47;5.72;;;3.60;;
25351;SDS011;13304;48.464;8.712;2023-08-12T14:43:16;4.70;;;3.00;;
25351;SDS011;13304;48.464;8.712;2023-08-12T14:45:44;4.90;;;3.10;;
25351;SDS011;13304;48.464;8.712;2023-08-12T14:48:10;9.35;;;3.25;;
25351;SDS011;13304;48.464;8.712;2023-08-12T14:50:39;6.93;;;3.35;;
25351;SDS011;13304;48.464;8.712;2023-08-12T14:53:05;4.22;;;2.85;;
25351;SDS011;13304;48.464;8.712;2023-08-12T14:55:33;4.65;;;2.95;;
25351;SDS011;13304;48.464;8.712;2023-08-12T14:58:02;9.18;;;3.35;;